sensor_id;sensor_type;location;lat;lon;timestamp;P1;durP1;ratioP1;P2;durP2;ratioP2
56136;SDS011;42008;52.934;5.884;2022-07-23T00:00:13;210.27;;;9.33;;
56136;SDS011;42008;52.934;5.884;2022-07-23T00:02:39;93.70;;;10.67;;
56136;SDS011;42008;52.934;5.884;2022-07-23T00:05:04;21.70;;;7.70;;
56136;SDS011;42008;52.934;5.884;2022-07-23T00:07:30;16.53;;;7.80;;
56136;SDS011;42008;52.934;5.884;2022-07-23T00:09:56;13.20;;;7.40;;
56136;SDS011;42008;52.934;5.884;2022-07-23T00:12:21;8.10;;;6.37;;
56136;SDS011;42008;52.934;5.884;2022-07-23T00:14:47;11.27;;;7.30;;
56136;SDS011;42008;52.934;5.884;2022-07-23T00:17:13;12.33;;;7.13;;
56136;SDS011;42008;52.934;5.884;2022-07-23T00:19:38;636.07;;;20.27;;
56136;SDS011;42008;52.934;5.884;2022-07-23T00:22:04;285.67;;;12.80;;
56136;SDS011;42008;52.934;5.884;2022-07-23T00:24:29;591.73;;;27.40;;
56136;SDS011;42008;52.934;5.884;2022-07-23T00:26:55;1280.73;;;61.80;;
56136;SDS011;42008;52.934;5.884;2022-07-23T00:29:20;789.60;;;37.03;;
56136;SDS011;42008;52.934;5.884;2022-07-23T00:31:46;1055.77;;;57.17;;
56136;SDS011;42008;52.934;5.884;2022-07-23T00:34:12;582.20;;;36.80;;
56136;SDS011;42008;52.934;5.884;2022-07-23T00:36:37;99.23;;;11.23;;
56136;SDS011;42008;52.934;5.884;2022-07-23T00:39:03;20.40;;;5.87;;
56136;SDS011;42008;52.934;5.884;2022-07-23T00:41:28;23.90;;;6.07;;
56136;SDS011;42008;52.934;5.884;2022-07-23T00:43:54;69.03;;;9.83;;
56136;SDS011;42008;52.934;5.884;2022-07-23T00:46:20;163.93;;;15.97;;
56136;SDS011;42008;52.934;5.884;2022-07-23T00:48:46;15.13;;;8.90;;
56136;SDS011;42008;52.934;5.884;2022-07-23T00:51:12;8.80;;;7.03;;
56136;SDS011;42008;52.934;5.884;2022-07-23T00:53:39;15.67;;;9.23;;
56136;SDS011;42008;52.934;5.884;2022-07-23T00:56:06;12.40;;;8.87;;
56136;SDS011;42008;52.934;5.884;2022-07-23T00:58:31;23.27;;;8.83;;
56136;SDS011;42008;52.934;5.884;2022-07-23T01:01:00;11.47;;;6.73;;
56136;SDS011;42008;52.934;5.884;2022-07-23T01:03:25;10.73;;;6.70;;
56136;SDS011;42008;52.934;5.884;2022-07-23T01:05:51;51.07;;;9.90;;
56136;SDS011;42008;52.934;5.884;2022-07-23T01:08:16;47.50;;;9.70;;
56136;SDS011;42008;52.934;5.884;2022-07-23T01:10:42;15.47;;;7.67;;
56136;SDS011;42008;52.934;5.884;2022-07-23T01:13:09;71.00;;;10.27;;
56136;SDS011;42008;52.934;5.884;2022-07-23T01:15:35;13.87;;;7.50;;
56136;SDS011;42008;52.934;5.884;2022-07-23T01:18:03;10.87;;;6.77;;
56136;SDS011;42008;52.934;5.884;2022-07-23T01:20:30;17.00;;;6.83;;
56136;SDS011;42008;52.934;5.884;2022-07-23T01:22:57;35.30;;;8.77;;
56136;SDS011;42008;52.934;5.884;2022-07-23T01:25:23;14.07;;;7.47;;
56136;SDS011;42008;52.934;5.884;2022-07-23T01:27:49;9.37;;;6.67;;
56136;SDS011;42008;52.934;5.884;2022-07-23T01:30:17;12.50;;;7.43;;
56136;SDS011;42008;52.934;5.884;2022-07-23T01:32:42;13.57;;;7.33;;
56136;SDS011;42008;52.934;5.884;2022-07-23T01:35:08;17.00;;;7.63;;
56136;SDS011;42008;52.934;5.884;2022-07-23T01:37:34;55.77;;;11.13;;
56136;SDS011;42008;52.934;5.884;2022-07-23T01:40:00;20.53;;;9.63;;
56136;SDS011;42008;52.934;5.884;2022-07-23T01:42:26;18.20;;;5.90;;
56136;SDS011;42008;52.934;5.884;2022-07-23T01:44:51;8.67;;;5.30;;
56136;SDS011;42008;52.934;5.884;2022-07-23T01:47:17;11.03;;;6.40;;
56136;SDS011;42008;52.934;5.884;2022-07-23T01:49:43;12.13;;;7.60;;
56136;SDS011;42008;52.934;5.884;2022-07-23T01:52:08;41.63;;;7.77;;
56136;SDS011;42008;52.934;5.884;2022-07-23T01:54:36;743.30;;;35.17;;
56136;SDS011;42008;52.934;5.884;2022-07-23T01:57:03;1186.53;;;51.37;;
56136;SDS011;42008;52.934;5.884;2022-07-23T01:59:29;795.83;;;27.23;;
56136;SDS011;42008;52.934;5.884;2022-07-23T02:01:55;1202.20;;;53.80;;
56136;SDS011;42008;52.934;5.884;2022-07-23T02:04:21;112.40;;;7.33;;
56136;SDS011;42008;52.934;5.884;2022-07-23T02:06:47;7.67;;;3.97;;
56136;SDS011;42008;52.934;5.884;2022-07-23T02:09:13;103.47;;;8.47;;
56136;SDS011;42008;52.934;5.884;2022-07-23T02:11:39;1281.97;;;52.17;;
56136;SDS011;42008;52.934;5.884;2022-07-23T02:14:05;1827.50;;;75.87;;
56136;SDS011;42008;52.934;5.884;2022-07-23T02:16:30;1353.60;;;58.37;;
56136;SDS011;42008;52.934;5.884;2022-07-23T02:18:56;1112.00;;;44.77;;
56136;SDS011;42008;52.934;5.884;2022-07-23T02:21:22;924.40;;;30.50;;
56136;SDS011;42008;52.934;5.884;2022-07-23T02:23:47;1587.53;;;69.53;;
56136;SDS011;42008;52.934;5.884;2022-07-23T02:26:13;1089.50;;;42.43;;
56136;SDS011;42008;52.934;5.884;2022-07-23T02:28:39;1347.90;;;55.50;;
56136;SDS011;42008;52.934;5.884;2022-07-23T02:31:04;1310.00;;;55.57;;
56136;SDS011;42008;52.934;5.884;2022-07-23T02:33:31;442.10;;;18.20;;
56136;SDS011;42008;52.934;5.884;2022-07-23T02:35:57;727.10;;;29.50;;
56136;SDS011;42008;52.934;5.884;2022-07-23T02:38:23;463.80;;;19.17;;
56136;SDS011;42008;52.934;5.884;2022-07-23T02:40:49;763.33;;;38.77;;
56136;SDS011;42008;52.934;5.884;2022-07-23T02:43:14;124.57;;;10.33;;
56136;SDS011;42008;52.934;5.884;2022-07-23T02:45:40;545.80;;;25.07;;
56136;SDS011;42008;52.934;5.884;2022-07-23T02:48:05;257.80;;;13.50;;
56136;SDS011;42008;52.934;5.884;2022-07-23T02:50:31;275.10;;;14.20;;
56136;SDS011;42008;52.934;5.884;2022-07-23T02:52:56;86.37;;;7.77;;
56136;SDS011;42008;52.934;5.884;2022-07-23T02:55:22;16.50;;;7.33;;
56136;SDS011;42008;52.934;5.884;2022-07-23T02:57:48;12.73;;;7.27;;
56136;SDS011;42008;52.934;5.884;2022-07-23T03:00:13;321.07;;;12.30;;
56136;SDS011;42008;52.934;5.884;2022-07-23T03:02:39;1546.87;;;63.10;;
56136;SDS011;42008;52.934;5.884;2022-07-23T03:05:04;1786.50;;;72.40;;
56136;SDS011;42008;52.934;5.884;2022-07-23T03:07:30;1999.90;;;80.93;;
56136;SDS011;42008;52.934;5.884;2022-07-23T03:09:56;333.63;;;12.87;;
56136;SDS011;42008;52.934;5.884;2022-07-23T03:12:22;1378.77;;;58.67;;
56136;SDS011;42008;52.934;5.884;2022-07-23T03:14:47;1999.90;;;90.83;;
56136;SDS011;42008;52.934;5.884;2022-07-23T03:17:13;1999.90;;;104.13;;
56136;SDS011;42008;52.934;5.884;2022-07-23T03:19:38;1999.90;;;144.23;;
56136;SDS011;42008;52.934;5.884;2022-07-23T03:22:04;1999.90;;;142.90;;
56136;SDS011;42008;52.934;5.884;2022-07-23T03:24:30;1999.90;;;161.80;;
56136;SDS011;42008;52.934;5.884;2022-07-23T03:27:14;1720.07;;;65.10;;
56136;SDS011;42008;52.934;5.884;2022-07-23T03:29:40;1153.93;;;47.00;;
56136;SDS011;42008;52.934;5.884;2022-07-23T03:32:05;1727.03;;;68.07;;
56136;SDS011;42008;52.934;5.884;2022-07-23T03:34:31;1999.90;;;128.60;;
56136;SDS011;42008;52.934;5.884;2022-07-23T03:36:56;1999.90;;;144.13;;
56136;SDS011;42008;52.934;5.884;2022-07-23T03:39:22;864.83;;;34.47;;
56136;SDS011;42008;52.934;5.884;2022-07-23T03:41:48;659.20;;;20.77;;
56136;SDS011;42008;52.934;5.884;2022-07-23T03:44:13;1238.10;;;49.77;;
56136;SDS011;42008;52.934;5.884;2022-07-23T03:46:39;670.67;;;31.97;;
56136;SDS011;42008;52.934;5.884;2022-07-23T03:49:04;328.17;;;17.80;;
56136;SDS011;42008;52.934;5.884;2022-07-23T03:51:30;381.40;;;25.53;;
56136;SDS011;42008;52.934;5.884;2022-07-23T03:53:55;66.47;;;9.43;;
56136;SDS011;42008;52.934;5.884;2022-07-23T03:56:21;1141.00;;;60.80;;
56136;SDS011;42008;52.934;5.884;2022-07-23T03:58:47;401.93;;;24.17;;
56136;SDS011;42008;52.934;5.884;2022-07-23T04:01:12;84.90;;;9.97;;
56136;SDS011;42008;52.934;5.884;2022-07-23T04:03:38;10.13;;;5.97;;
56136;SDS011;42008;52.934;5.884;2022-07-23T04:06:04;8.23;;;5.97;;
56136;SDS011;42008;52.934;5.884;2022-07-23T04:08:30;61.97;;;10.37;;
56136;SDS011;42008;52.934;5.884;2022-07-23T04:10:56;63.83;;;12.13;;
56136;SDS011;42008;52.934;5.884;2022-07-23T04:13:21;52.73;;;8.37;;
56136;SDS011;42008;52.934;5.884;2022-07-23T04:15:47;282.00;;;17.80;;
56136;SDS011;42008;52.934;5.884;2022-07-23T04:18:12;29.03;;;7.13;;
56136;SDS011;42008;52.934;5.884;2022-07-23T04:20:38;101.63;;;10.83;;
56136;SDS011;42008;52.934;5.884;2022-07-23T04:23:04;12.83;;;7.20;;
56136;SDS011;42008;52.934;5.884;2022-07-23T04:25:29;19.67;;;8.77;;
56136;SDS011;42008;52.934;5.884;2022-07-23T04:27:55;16.53;;;8.97;;
56136;SDS011;42008;52.934;5.884;2022-07-23T04:30:20;13.43;;;8.10;;
56136;SDS011;42008;52.934;5.884;2022-07-23T04:32:46;15.13;;;9.60;;
56136;SDS011;42008;52.934;5.884;2022-07-23T04:35:12;17.00;;;8.33;;
56136;SDS011;42008;52.934;5.884;2022-07-23T04:37:37;16.97;;;9.90;;
56136;SDS011;42008;52.934;5.884;2022-07-23T04:40:03;19.07;;;8.87;;
56136;SDS011;42008;52.934;5.884;2022-07-23T04:42:29;10.00;;;6.53;;
56136;SDS011;42008;52.934;5.884;2022-07-23T04:44:54;12.53;;;8.10;;
56136;SDS011;42008;52.934;5.884;2022-07-23T04:47:20;11.37;;;7.10;;
56136;SDS011;42008;52.934;5.884;2022-07-23T04:49:46;11.33;;;6.50;;
56136;SDS011;42008;52.934;5.884;2022-07-23T04:52:11;8.17;;;6.50;;
56136;SDS011;42008;52.934;5.884;2022-07-23T04:54:37;8.60;;;5.60;;
56136;SDS011;42008;52.934;5.884;2022-07-23T04:57:02;10.37;;;5.57;;
56136;SDS011;42008;52.934;5.884;2022-07-23T04:59:28;9.20;;;5.10;;
56136;SDS011;42008;52.934;5.884;2022-07-23T05:01:53;12.93;;;4.60;;
56136;SDS011;42008;52.934;5.884;2022-07-23T05:04:19;6.23;;;4.70;;
56136;SDS011;42008;52.934;5.884;2022-07-23T05:06:45;12.67;;;4.90;;
56136;SDS011;42008;52.934;5.884;2022-07-23T05:09:10;6.50;;;4.50;;
56136;SDS011;42008;52.934;5.884;2022-07-23T05:11:36;7.77;;;4.03;;
56136;SDS011;42008;52.934;5.884;2022-07-23T05:14:01;7.90;;;4.00;;
56136;SDS011;42008;52.934;5.884;2022-07-23T05:16:27;7.83;;;4.77;;
56136;SDS011;42008;52.934;5.884;2022-07-23T05:18:53;10.80;;;4.60;;
56136;SDS011;42008;52.934;5.884;2022-07-23T05:21:19;7.20;;;3.97;;
56136;SDS011;42008;52.934;5.884;2022-07-23T05:23:45;7.93;;;4.30;;
56136;SDS011;42008;52.934;5.884;2022-07-23T05:26:10;7.40;;;4.50;;
56136;SDS011;42008;52.934;5.884;2022-07-23T05:28:36;7.47;;;4.30;;
56136;SDS011;42008;52.934;5.884;2022-07-23T05:31:02;10.57;;;3.70;;
56136;SDS011;42008;52.934;5.884;2022-07-23T05:33:29;8.30;;;3.77;;
56136;SDS011;42008;52.934;5.884;2022-07-23T05:35:59;13.13;;;3.70;;
56136;SDS011;42008;52.934;5.884;2022-07-23T05:38:28;7.23;;;3.53;;
56136;SDS011;42008;52.934;5.884;2022-07-23T05:40:54;5.50;;;3.37;;
56136;SDS011;42008;52.934;5.884;2022-07-23T05:43:20;6.30;;;3.60;;
56136;SDS011;42008;52.934;5.884;2022-07-23T05:45:45;10.60;;;3.80;;
56136;SDS011;42008;52.934;5.884;2022-07-23T05:48:11;6.57;;;3.20;;
56136;SDS011;42008;52.934;5.884;2022-07-23T05:50:36;6.87;;;3.87;;
56136;SDS011;42008;52.934;5.884;2022-07-23T05:53:02;8.40;;;3.60;;
56136;SDS011;42008;52.934;5.884;2022-07-23T05:55:28;9.50;;;3.57;;
56136;SDS011;42008;52.934;5.884;2022-07-23T05:57:56;8.93;;;4.23;;
56136;SDS011;42008;52.934;5.884;2022-07-23T06:00:22;8.73;;;3.90;;
56136;SDS011;42008;52.934;5.884;2022-07-23T06:02:48;8.23;;;4.17;;
56136;SDS011;42008;52.934;5.884;2022-07-23T06:05:13;7.63;;;2.90;;
56136;SDS011;42008;52.934;5.884;2022-07-23T06:07:39;6.80;;;3.27;;
56136;SDS011;42008;52.934;5.884;2022-07-23T06:10:05;8.27;;;2.47;;
56136;SDS011;42008;52.934;5.884;2022-07-23T06:12:31;4.77;;;2.33;;
56136;SDS011;42008;52.934;5.884;2022-07-23T06:14:56;13.13;;;3.03;;
56136;SDS011;42008;52.934;5.884;2022-07-23T06:17:22;6.13;;;2.10;;
56136;SDS011;42008;52.934;5.884;2022-07-23T06:19:47;4.40;;;1.80;;
56136;SDS011;42008;52.934;5.884;2022-07-23T06:22:13;4.03;;;1.80;;
56136;SDS011;42008;52.934;5.884;2022-07-23T06:24:38;3.90;;;1.60;;
56136;SDS011;42008;52.934;5.884;2022-07-23T06:27:04;6.47;;;1.60;;
56136;SDS011;42008;52.934;5.884;2022-07-23T06:29:30;6.43;;;1.47;;
56136;SDS011;42008;52.934;5.884;2022-07-23T06:31:55;4.67;;;1.23;;
56136;SDS011;42008;52.934;5.884;2022-07-23T06:34:22;9.23;;;1.63;;
56136;SDS011;42008;52.934;5.884;2022-07-23T06:36:47;4.53;;;1.43;;
56136;SDS011;42008;52.934;5.884;2022-07-23T06:39:13;5.07;;;1.53;;
56136;SDS011;42008;52.934;5.884;2022-07-23T06:41:38;4.63;;;1.57;;
56136;SDS011;42008;52.934;5.884;2022-07-23T06:44:04;3.33;;;1.30;;
56136;SDS011;42008;52.934;5.884;2022-07-23T06:46:30;3.60;;;1.40;;
56136;SDS011;42008;52.934;5.884;2022-07-23T06:48:55;6.57;;;1.70;;
56136;SDS011;42008;52.934;5.884;2022-07-23T06:51:21;6.77;;;1.37;;
56136;SDS011;42008;52.934;5.884;2022-07-23T06:53:46;3.63;;;1.30;;
56136;SDS011;42008;52.934;5.884;2022-07-23T06:56:12;2.87;;;1.00;;
56136;SDS011;42008;52.934;5.884;2022-07-23T06:58:38;3.47;;;0.90;;
56136;SDS011;42008;52.934;5.884;2022-07-23T07:01:03;4.30;;;0.83;;
56136;SDS011;42008;52.934;5.884;2022-07-23T07:03:29;3.17;;;1.13;;
56136;SDS011;42008;52.934;5.884;2022-07-23T07:05:54;2.70;;;0.97;;
56136;SDS011;42008;52.934;5.884;2022-07-23T07:08:22;2.63;;;0.77;;
56136;SDS011;42008;52.934;5.884;2022-07-23T07:10:48;2.30;;;0.90;;
56136;SDS011;42008;52.934;5.884;2022-07-23T07:13:14;4.37;;;1.00;;
56136;SDS011;42008;52.934;5.884;2022-07-23T07:15:39;3.40;;;1.07;;
56136;SDS011;42008;52.934;5.884;2022-07-23T07:18:05;5.60;;;1.73;;
56136;SDS011;42008;52.934;5.884;2022-07-23T07:20:31;3.27;;;0.87;;
56136;SDS011;42008;52.934;5.884;2022-07-23T07:22:56;3.23;;;1.00;;
56136;SDS011;42008;52.934;5.884;2022-07-23T07:25:22;2.70;;;0.90;;
56136;SDS011;42008;52.934;5.884;2022-07-23T07:27:47;7.43;;;0.90;;
56136;SDS011;42008;52.934;5.884;2022-07-23T07:30:13;3.23;;;0.90;;
56136;SDS011;42008;52.934;5.884;2022-07-23T07:32:38;2.47;;;0.77;;
56136;SDS011;42008;52.934;5.884;2022-07-23T07:35:05;3.57;;;0.80;;
56136;SDS011;42008;52.934;5.884;2022-07-23T07:37:31;1.70;;;0.77;;
56136;SDS011;42008;52.934;5.884;2022-07-23T07:39:57;3.23;;;1.00;;
56136;SDS011;42008;52.934;5.884;2022-07-23T07:42:23;3.77;;;1.00;;
56136;SDS011;42008;52.934;5.884;2022-07-23T07:44:48;3.77;;;0.90;;
56136;SDS011;42008;52.934;5.884;2022-07-23T07:47:14;2.90;;;0.97;;
56136;SDS011;42008;52.934;5.884;2022-07-23T07:49:40;4.03;;;1.00;;
56136;SDS011;42008;52.934;5.884;2022-07-23T07:52:07;2.73;;;0.80;;
56136;SDS011;42008;52.934;5.884;2022-07-23T07:54:32;3.30;;;0.80;;
56136;SDS011;42008;52.934;5.884;2022-07-23T07:56:58;2.93;;;0.80;;
56136;SDS011;42008;52.934;5.884;2022-07-23T07:59:24;2.83;;;0.90;;
56136;SDS011;42008;52.934;5.884;2022-07-23T08:01:50;2.30;;;0.80;;
56136;SDS011;42008;52.934;5.884;2022-07-23T08:04:16;2.53;;;0.90;;
56136;SDS011;42008;52.934;5.884;2022-07-23T08:06:42;2.37;;;0.90;;
56136;SDS011;42008;52.934;5.884;2022-07-23T08:09:07;3.93;;;0.80;;
56136;SDS011;42008;52.934;5.884;2022-07-23T08:11:33;2.97;;;0.87;;
56136;SDS011;42008;52.934;5.884;2022-07-23T08:13:59;2.70;;;1.00;;
56136;SDS011;42008;52.934;5.884;2022-07-23T08:16:25;3.97;;;0.80;;
56136;SDS011;42008;52.934;5.884;2022-07-23T08:18:50;2.73;;;0.80;;
56136;SDS011;42008;52.934;5.884;2022-07-23T08:21:16;2.63;;;0.80;;
56136;SDS011;42008;52.934;5.884;2022-07-23T08:23:42;4.37;;;1.20;;
56136;SDS011;42008;52.934;5.884;2022-07-23T08:26:07;3.67;;;0.80;;
56136;SDS011;42008;52.934;5.884;2022-07-23T08:28:33;2.70;;;0.90;;
56136;SDS011;42008;52.934;5.884;2022-07-23T08:30:59;2.93;;;0.80;;
56136;SDS011;42008;52.934;5.884;2022-07-23T08:33:25;2.60;;;1.00;;
56136;SDS011;42008;52.934;5.884;2022-07-23T08:35:51;2.73;;;0.90;;
56136;SDS011;42008;52.934;5.884;2022-07-23T08:38:18;2.57;;;0.90;;
56136;SDS011;42008;52.934;5.884;2022-07-23T08:40:47;3.40;;;0.80;;
56136;SDS011;42008;52.934;5.884;2022-07-23T08:43:15;2.93;;;0.90;;
56136;SDS011;42008;52.934;5.884;2022-07-23T08:45:46;2.88;;;0.80;;
56136;SDS011;42008;52.934;5.884;2022-07-23T08:48:15;2.10;;;0.90;;
56136;SDS011;42008;52.934;5.884;2022-07-23T08:50:43;3.90;;;0.90;;
56136;SDS011;42008;52.934;5.884;2022-07-23T08:53:12;2.42;;;0.85;;
56136;SDS011;42008;52.934;5.884;2022-07-23T08:55:38;3.55;;;0.88;;
56136;SDS011;42008;52.934;5.884;2022-07-23T08:58:05;2.45;;;0.90;;
56136;SDS011;42008;52.934;5.884;2022-07-23T09:00:31;3.78;;;1.58;;
56136;SDS011;42008;52.934;5.884;2022-07-23T09:02:57;3.58;;;0.93;;
56136;SDS011;42008;52.934;5.884;2022-07-23T09:05:23;2.17;;;0.90;;
56136;SDS011;42008;52.934;5.884;2022-07-23T09:21:09;3.47;;;1.20;;
56136;SDS011;42008;52.934;5.884;2022-07-23T09:26:18;3.13;;;1.10;;
56136;SDS011;42008;52.934;5.884;2022-07-23T09:31:51;4.15;;;1.40;;
56136;SDS011;42008;52.934;5.884;2022-07-23T09:36:57;4.20;;;1.00;;
56136;SDS011;42008;52.934;5.884;2022-07-23T09:39:33;3.78;;;1.20;;
56136;SDS011;42008;52.934;5.884;2022-07-23T09:47:07;3.47;;;1.15;;
56136;SDS011;42008;52.934;5.884;2022-07-23T09:49:32;4.18;;;1.33;;
56136;SDS011;42008;52.934;5.884;2022-07-23T09:51:59;3.40;;;1.50;;
56136;SDS011;42008;52.934;5.884;2022-07-23T09:54:28;4.00;;;1.23;;
56136;SDS011;42008;52.934;5.884;2022-07-23T09:57:01;3.92;;;1.27;;
56136;SDS011;42008;52.934;5.884;2022-07-23T09:59:31;2.33;;;1.10;;
56136;SDS011;42008;52.934;5.884;2022-07-23T10:01:59;4.88;;;1.25;;
56136;SDS011;42008;52.934;5.884;2022-07-23T10:04:26;2.38;;;1.17;;
56136;SDS011;42008;52.934;5.884;2022-07-23T10:06:54;8.52;;;1.67;;
56136;SDS011;42008;52.934;5.884;2022-07-23T10:09:28;7.07;;;1.38;;
56136;SDS011;42008;52.934;5.884;2022-07-23T10:11:57;3.97;;;1.25;;
56136;SDS011;42008;52.934;5.884;2022-07-23T10:14:40;6.78;;;1.50;;
56136;SDS011;42008;52.934;5.884;2022-07-23T10:17:06;2.88;;;1.35;;
56136;SDS011;42008;52.934;5.884;2022-07-23T10:19:32;4.65;;;1.10;;
56136;SDS011;42008;52.934;5.884;2022-07-23T10:22:00;3.10;;;1.50;;
56136;SDS011;42008;52.934;5.884;2022-07-23T10:29:55;3.58;;;1.42;;
56136;SDS011;42008;52.934;5.884;2022-07-23T10:32:26;3.47;;;1.38;;
56136;SDS011;42008;52.934;5.884;2022-07-23T10:38:07;4.63;;;1.40;;
56136;SDS011;42008;52.934;5.884;2022-07-23T10:40:53;3.42;;;1.40;;
56136;SDS011;42008;52.934;5.884;2022-07-23T10:43:20;4.53;;;1.60;;
56136;SDS011;42008;52.934;5.884;2022-07-23T10:45:45;2.95;;;1.30;;
56136;SDS011;42008;52.934;5.884;2022-07-23T10:50:40;2.83;;;1.30;;
56136;SDS011;42008;52.934;5.884;2022-07-23T10:55:39;3.30;;;1.42;;
56136;SDS011;42008;52.934;5.884;2022-07-23T10:58:07;3.35;;;1.40;;
56136;SDS011;42008;52.934;5.884;2022-07-23T11:00:33;4.50;;;1.40;;
56136;SDS011;42008;52.934;5.884;2022-07-23T11:03:00;4.57;;;1.58;;
56136;SDS011;42008;52.934;5.884;2022-07-23T11:05:41;5.22;;;1.50;;
56136;SDS011;42008;52.934;5.884;2022-07-23T11:10:42;3.45;;;1.50;;
56136;SDS011;42008;52.934;5.884;2022-07-23T11:37:12;3.58;;;1.60;;
56136;SDS011;42008;52.934;5.884;2022-07-23T11:39:55;2.25;;;1.38;;
56136;SDS011;42008;52.934;5.884;2022-07-23T11:42:22;5.45;;;1.70;;
56136;SDS011;42008;52.934;5.884;2022-07-23T11:44:49;3.60;;;1.70;;
56136;SDS011;42008;52.934;5.884;2022-07-23T11:47:15;4.47;;;1.80;;
56136;SDS011;42008;52.934;5.884;2022-07-23T11:52:20;3.90;;;1.42;;
56136;SDS011;42008;52.934;5.884;2022-07-23T11:54:47;2.78;;;1.55;;
56136;SDS011;42008;52.934;5.884;2022-07-23T11:57:13;7.68;;;1.77;;
56136;SDS011;42008;52.934;5.884;2022-07-23T11:59:39;5.75;;;1.50;;
56136;SDS011;42008;52.934;5.884;2022-07-23T12:02:06;3.83;;;1.70;;
56136;SDS011;42008;52.934;5.884;2022-07-23T12:04:38;4.70;;;1.70;;
56136;SDS011;42008;52.934;5.884;2022-07-23T12:10:00;3.10;;;1.60;;
56136;SDS011;42008;52.934;5.884;2022-07-23T12:12:36;4.38;;;2.00;;
56136;SDS011;42008;52.934;5.884;2022-07-23T12:15:30;5.80;;;1.80;;
56136;SDS011;42008;52.934;5.884;2022-07-23T12:17:58;3.72;;;1.85;;
56136;SDS011;42008;52.934;5.884;2022-07-23T12:20:26;3.90;;;1.65;;
56136;SDS011;42008;52.934;5.884;2022-07-23T12:22:58;2.75;;;1.58;;
56136;SDS011;42008;52.934;5.884;2022-07-23T12:25:30;4.00;;;1.60;;
56136;SDS011;42008;52.934;5.884;2022-07-23T12:28:04;5.25;;;2.40;;
56136;SDS011;42008;52.934;5.884;2022-07-23T12:33:10;3.95;;;1.90;;
56136;SDS011;42008;52.934;5.884;2022-07-23T12:35:41;3.75;;;1.80;;
56136;SDS011;42008;52.934;5.884;2022-07-23T12:38:17;6.15;;;1.77;;
56136;SDS011;42008;52.934;5.884;2022-07-23T12:43:10;5.30;;;1.60;;
56136;SDS011;42008;52.934;5.884;2022-07-23T12:48:15;4.40;;;1.90;;
56136;SDS011;42008;52.934;5.884;2022-07-23T12:50:44;3.65;;;1.77;;
56136;SDS011;42008;52.934;5.884;2022-07-23T12:55:45;5.90;;;2.35;;
56136;SDS011;42008;52.934;5.884;2022-07-23T12:58:13;3.28;;;1.80;;
56136;SDS011;42008;52.934;5.884;2022-07-23T13:00:55;4.53;;;1.58;;
56136;SDS011;42008;52.934;5.884;2022-07-23T13:03:22;4.82;;;2.00;;
56136;SDS011;42008;52.934;5.884;2022-07-23T13:05:48;4.47;;;2.00;;
56136;SDS011;42008;52.934;5.884;2022-07-23T13:08:14;4.07;;;1.80;;
56136;SDS011;42008;52.934;5.884;2022-07-23T13:10:39;4.45;;;1.70;;
56136;SDS011;42008;52.934;5.884;2022-07-23T13:13:09;5.75;;;2.00;;
56136;SDS011;42008;52.934;5.884;2022-07-23T13:15:35;5.72;;;2.45;;
56136;SDS011;42008;52.934;5.884;2022-07-23T13:18:01;5.38;;;2.00;;
56136;SDS011;42008;52.934;5.884;2022-07-23T13:20:27;3.67;;;1.77;;
56136;SDS011;42008;52.934;5.884;2022-07-23T13:22:52;4.32;;;1.80;;
56136;SDS011;42008;52.934;5.884;2022-07-23T13:25:18;5.15;;;1.80;;
56136;SDS011;42008;52.934;5.884;2022-07-23T13:27:44;5.25;;;1.70;;
56136;SDS011;42008;52.934;5.884;2022-07-23T13:30:09;3.47;;;1.70;;
56136;SDS011;42008;52.934;5.884;2022-07-23T13:32:36;3.67;;;1.70;;
56136;SDS011;42008;52.934;5.884;2022-07-23T13:35:02;4.22;;;1.70;;
56136;SDS011;42008;52.934;5.884;2022-07-23T13:37:28;4.90;;;1.55;;
56136;SDS011;42008;52.934;5.884;2022-07-23T13:39:54;3.83;;;1.55;;
56136;SDS011;42008;52.934;5.884;2022-07-23T13:42:19;3.25;;;1.40;;
56136;SDS011;42008;52.934;5.884;2022-07-23T13:44:45;5.82;;;1.63;;
56136;SDS011;42008;52.934;5.884;2022-07-23T13:47:11;4.18;;;1.60;;
56136;SDS011;42008;52.934;5.884;2022-07-23T13:49:36;4.70;;;1.50;;
56136;SDS011;42008;52.934;5.884;2022-07-23T13:52:05;4.10;;;1.90;;
56136;SDS011;42008;52.934;5.884;2022-07-23T13:54:30;4.50;;;1.58;;
56136;SDS011;42008;52.934;5.884;2022-07-23T13:56:56;5.43;;;1.63;;
56136;SDS011;42008;52.934;5.884;2022-07-23T13:59:22;2.67;;;1.23;;
56136;SDS011;42008;52.934;5.884;2022-07-23T14:01:47;3.42;;;1.27;;
56136;SDS011;42008;52.934;5.884;2022-07-23T14:04:13;2.88;;;1.38;;
56136;SDS011;42008;52.934;5.884;2022-07-23T14:06:39;4.68;;;1.30;;
56136;SDS011;42008;52.934;5.884;2022-07-23T14:09:04;5.15;;;1.50;;
56136;SDS011;42008;52.934;5.884;2022-07-23T14:11:30;3.75;;;1.40;;
56136;SDS011;42008;52.934;5.884;2022-07-23T14:13:56;3.45;;;1.30;;
56136;SDS011;42008;52.934;5.884;2022-07-23T14:16:23;3.22;;;1.30;;
56136;SDS011;42008;52.934;5.884;2022-07-23T14:18:49;4.50;;;1.40;;
56136;SDS011;42008;52.934;5.884;2022-07-23T14:21:14;3.25;;;1.52;;
56136;SDS011;42008;52.934;5.884;2022-07-23T14:23:40;4.13;;;1.23;;
56136;SDS011;42008;52.934;5.884;2022-07-23T14:26:05;5.18;;;1.40;;
56136;SDS011;42008;52.934;5.884;2022-07-23T14:28:34;5.50;;;1.48;;
56136;SDS011;42008;52.934;5.884;2022-07-23T14:31:00;3.90;;;1.40;;
56136;SDS011;42008;52.934;5.884;2022-07-23T14:33:25;4.53;;;1.60;;
56136;SDS011;42008;52.934;5.884;2022-07-23T14:35:51;2.90;;;1.45;;
56136;SDS011;42008;52.934;5.884;2022-07-23T14:38:17;5.80;;;1.60;;
56136;SDS011;42008;52.934;5.884;2022-07-23T14:40:42;7.53;;;1.80;;
56136;SDS011;42008;52.934;5.884;2022-07-23T14:43:08;3.55;;;1.55;;
56136;SDS011;42008;52.934;5.884;2022-07-23T14:45:34;3.92;;;1.58;;
56136;SDS011;42008;52.934;5.884;2022-07-23T14:48:00;4.18;;;1.50;;
56136;SDS011;42008;52.934;5.884;2022-07-23T14:50:27;2.63;;;1.20;;
56136;SDS011;42008;52.934;5.884;2022-07-23T14:52:52;5.40;;;1.75;;
56136;SDS011;42008;52.934;5.884;2022-07-23T14:55:18;4.15;;;1.55;;
56136;SDS011;42008;52.934;5.884;2022-07-23T14:57:44;4.68;;;1.88;;
56136;SDS011;42008;52.934;5.884;2022-07-23T15:00:10;5.25;;;1.77;;
56136;SDS011;42008;52.934;5.884;2022-07-23T15:02:35;5.30;;;1.30;;
56136;SDS011;42008;52.934;5.884;2022-07-23T15:05:01;3.40;;;1.40;;
56136;SDS011;42008;52.934;5.884;2022-07-23T15:07:27;4.38;;;1.52;;
56136;SDS011;42008;52.934;5.884;2022-07-23T15:09:55;5.05;;;1.70;;
56136;SDS011;42008;52.934;5.884;2022-07-23T15:12:21;4.10;;;1.60;;
56136;SDS011;42008;52.934;5.884;2022-07-23T15:14:47;3.10;;;1.55;;
56136;SDS011;42008;52.934;5.884;2022-07-23T15:17:12;4.18;;;1.60;;
56136;SDS011;42008;52.934;5.884;2022-07-23T15:19:38;4.45;;;1.48;;
56136;SDS011;42008;52.934;5.884;2022-07-23T15:22:03;4.03;;;1.60;;
56136;SDS011;42008;52.934;5.884;2022-07-23T15:24:29;5.38;;;1.70;;
56136;SDS011;42008;52.934;5.884;2022-07-23T15:26:55;6.50;;;2.42;;
56136;SDS011;42008;52.934;5.884;2022-07-23T15:29:21;6.22;;;1.95;;
56136;SDS011;42008;52.934;5.884;2022-07-23T15:31:47;5.63;;;1.80;;
56136;SDS011;42008;52.934;5.884;2022-07-23T15:34:13;3.60;;;1.80;;
56136;SDS011;42008;52.934;5.884;2022-07-23T15:36:39;3.90;;;1.73;;
56136;SDS011;42008;52.934;5.884;2022-07-23T15:39:05;4.80;;;1.90;;
56136;SDS011;42008;52.934;5.884;2022-07-23T15:41:30;3.80;;;1.70;;
56136;SDS011;42008;52.934;5.884;2022-07-23T15:43:56;5.00;;;1.67;;
56136;SDS011;42008;52.934;5.884;2022-07-23T15:46:22;5.00;;;1.60;;
56136;SDS011;42008;52.934;5.884;2022-07-23T15:48:48;6.72;;;1.80;;
56136;SDS011;42008;52.934;5.884;2022-07-23T15:51:14;3.95;;;1.90;;
56136;SDS011;42008;52.934;5.884;2022-07-23T15:53:40;3.13;;;1.40;;
56136;SDS011;42008;52.934;5.884;2022-07-23T15:56:07;3.00;;;1.60;;